Cibola, Arizona
Current Conditions -  °F | °C
As of 4:52 PM on Wednesday 22 Oct 2014 (Local Time) from KBLH Reporting Station
Clear Clear  
Wind Chill: 92°   Ceiling: Unl
Heat Index: 92°   Visibility: 10mi
Dew Point: 43°   Wind: 5mph
Humidity: 18%   Direction: 270°W
Pressure: 29.86"   Gusts: NA
Location:  33.32°N, 114.67°W
Report Text: KBLH 222352Z AUTO 27004KT 10SM CLR 33/06 A2986 RMK AO2 SLP106 T03330061 10344 20278 56007
Loading
Personal Weather Stations






























Interactive Weather Map
Tropical Storm Tracking
New forecast layout! Learn more

10-Day Weather Forecast

Advertisements
Track Severe Weather on mobile